createdAt,value
2018-12-15T00:00:55.114Z,4.70
2018-12-15T00:03:23.169Z,4.60
2018-12-15T00:05:51.287Z,4.60
2018-12-15T00:08:19.370Z,4.60
2018-12-15T00:10:47.505Z,4.60
2018-12-15T00:13:15.538Z,4.60
2018-12-15T00:15:43.702Z,4.70
2018-12-15T00:18:12.669Z,4.70
2018-12-15T00:20:40.888Z,4.70
2018-12-15T00:23:08.962Z,4.70
2018-12-15T00:25:37.868Z,4.60
2018-12-15T00:28:05.966Z,4.60
2018-12-15T00:30:34.098Z,4.60
2018-12-15T00:33:02.185Z,4.70
2018-12-15T00:35:30.258Z,4.60
2018-12-15T00:37:58.371Z,4.70
2018-12-15T00:40:26.476Z,4.70
2018-12-15T00:42:54.549Z,4.70
2018-12-15T00:45:22.645Z,4.70
2018-12-15T00:47:50.731Z,4.60
2018-12-15T00:50:18.828Z,4.50
2018-12-15T00:52:46.906Z,4.50
2018-12-15T00:55:15.059Z,4.40
2018-12-15T00:57:43.127Z,4.40
2018-12-15T01:00:11.193Z,4.40
2018-12-15T01:02:39.296Z,4.40
2018-12-15T01:05:07.369Z,4.40
2018-12-15T01:07:35.506Z,4.50
2018-12-15T01:10:04.140Z,4.50
2018-12-15T01:12:32.251Z,4.40
2018-12-15T01:15:00.365Z,4.30
2018-12-15T01:17:28.459Z,4.40
2018-12-15T01:19:56.555Z,4.40
2018-12-15T01:22:24.651Z,4.40
2018-12-15T01:24:52.729Z,4.50
2018-12-15T01:27:20.834Z,4.40
2018-12-15T01:29:48.901Z,4.50
2018-12-15T01:32:16.976Z,4.50
2018-12-15T01:34:45.072Z,4.50
2018-12-15T01:37:13.130Z,4.50
2018-12-15T01:39:41.245Z,4.50
2018-12-15T01:42:09.342Z,4.60
2018-12-15T01:44:37.395Z,4.60
2018-12-15T01:47:05.491Z,4.50
2018-12-15T01:49:33.533Z,4.50
2018-12-15T01:52:01.630Z,4.50
2018-12-15T01:54:29.679Z,4.50
2018-12-15T01:56:57.786Z,4.50
2018-12-15T01:59:26.089Z,4.50
2018-12-15T02:01:54.156Z,4.50
2018-12-15T02:04:22.230Z,4.50
2018-12-15T02:06:50.552Z,4.50
2018-12-15T02:09:18.637Z,4.50
2018-12-15T02:11:46.700Z,4.50
2018-12-15T02:14:14.791Z,4.50
2018-12-15T02:16:42.871Z,4.50
2018-12-15T02:19:11.025Z,4.50
2018-12-15T02:21:39.209Z,4.50
2018-12-15T02:24:07.290Z,4.50
2018-12-15T02:26:35.352Z,4.50
2018-12-15T02:29:03.426Z,4.60
2018-12-15T02:31:31.499Z,4.50
2018-12-15T02:33:59.668Z,4.60
2018-12-15T02:36:27.771Z,4.60
2018-12-15T02:38:55.865Z,4.50
2018-12-15T02:41:24.740Z,4.60
2018-12-15T02:43:52.818Z,4.50
2018-12-15T02:46:20.922Z,4.50
2018-12-15T02:48:49.003Z,4.50
2018-12-15T02:51:17.087Z,4.50
2018-12-15T02:53:45.200Z,4.40
2018-12-15T02:56:13.269Z,4.40
2018-12-15T02:58:42.280Z,4.40
2018-12-15T03:01:10.442Z,4.50
2018-12-15T03:03:38.514Z,4.50
2018-12-15T03:06:06.584Z,4.50
2018-12-15T03:08:34.671Z,4.50
2018-12-15T03:11:02.750Z,4.50
2018-12-15T03:13:30.828Z,4.50
2018-12-15T03:15:58.904Z,4.50
2018-12-15T03:18:26.966Z,4.50
2018-12-15T03:20:59.964Z,4.40
2018-12-15T03:23:28.024Z,4.40
2018-12-15T03:25:56.212Z,4.40
2018-12-15T03:28:24.250Z,4.40
2018-12-15T03:30:52.329Z,4.50
2018-12-15T03:33:20.466Z,4.40
2018-12-15T03:35:48.561Z,4.50
2018-12-15T03:38:16.693Z,4.40
2018-12-15T03:40:44.761Z,4.40
2018-12-15T03:43:12.915Z,4.30
2018-12-15T03:45:40.975Z,4.30
2018-12-15T03:48:09.045Z,4.30
2018-12-15T03:50:37.155Z,4.40
2018-12-15T03:53:05.230Z,4.40
2018-12-15T03:55:33.319Z,4.50
2018-12-15T03:58:01.455Z,4.50
2018-12-15T04:00:29.554Z,4.50
2018-12-15T04:02:57.631Z,4.50
2018-12-15T04:05:25.698Z,4.50
2018-12-15T04:07:53.784Z,4.50
2018-12-15T04:10:21.894Z,4.50
2018-12-15T04:12:49.957Z,4.50
2018-12-15T04:15:18.032Z,4.40
2018-12-15T04:17:46.157Z,4.30
2018-12-15T04:20:14.254Z,4.40
2018-12-15T04:22:42.410Z,4.40
2018-12-15T04:25:10.474Z,4.20
2018-12-15T04:27:39.042Z,4.20
2018-12-15T04:30:07.469Z,4.30
2018-12-15T04:32:35.542Z,4.30
2018-12-15T04:35:04.022Z,4.40
2018-12-15T04:37:32.074Z,4.40
2018-12-15T04:40:00.145Z,4.40
2018-12-15T04:42:28.231Z,4.40
2018-12-15T04:44:56.873Z,4.40
2018-12-15T04:47:24.963Z,4.40
2018-12-15T04:49:53.033Z,4.40
2018-12-15T04:52:21.198Z,4.40
2018-12-15T04:54:50.203Z,4.40
2018-12-15T04:57:18.307Z,4.50
2018-12-15T04:59:46.373Z,4.40
2018-12-15T05:02:14.472Z,4.40
2018-12-15T05:04:42.970Z,4.40
2018-12-15T05:07:11.056Z,4.30
2018-12-15T05:09:39.102Z,4.30
2018-12-15T05:12:07.186Z,4.20
2018-12-15T05:14:35.268Z,4.20
2018-12-15T05:17:03.361Z,4.20
2018-12-15T05:19:31.420Z,4.20
2018-12-15T05:21:59.502Z,4.20
2018-12-15T05:24:27.582Z,4.10
2018-12-15T05:26:55.677Z,4.20
2018-12-15T05:29:23.781Z,4.10
2018-12-15T05:31:51.869Z,4.10
2018-12-15T05:34:19.927Z,4.10
2018-12-15T05:36:48.006Z,4.20
2018-12-15T05:39:16.098Z,4.20
2018-12-15T05:41:44.250Z,4.20
2018-12-15T05:44:12.326Z,4.20
2018-12-15T05:46:40.419Z,4.20
2018-12-15T05:49:08.493Z,4.30
2018-12-15T05:51:36.860Z,4.40
2018-12-15T05:54:04.943Z,4.40
2018-12-15T05:56:33.026Z,4.30
2018-12-15T05:59:01.103Z,4.10
2018-12-15T06:01:29.232Z,4.10
2018-12-15T06:03:57.329Z,4.10
2018-12-15T06:06:25.419Z,4.10
2018-12-15T06:08:53.490Z,4.10
2018-12-15T06:11:21.559Z,4.10
2018-12-15T06:13:49.633Z,3.90
2018-12-15T06:16:18.276Z,3.90
2018-12-15T06:18:50.712Z,3.90
2018-12-15T06:21:19.630Z,3.90
2018-12-15T06:23:47.695Z,3.80
2018-12-15T06:26:15.831Z,3.70
2018-12-15T06:28:43.909Z,3.60
2018-12-15T06:31:11.981Z,3.50
2018-12-15T06:33:40.091Z,3.50
2018-12-15T06:36:08.176Z,3.40
2018-12-15T06:38:36.243Z,3.50
2018-12-15T06:41:04.331Z,3.40
2018-12-15T06:43:32.736Z,3.40
2018-12-15T06:46:01.090Z,3.30
2018-12-15T06:48:29.205Z,3.20
2018-12-15T06:50:57.305Z,3.30
2018-12-15T06:53:43.930Z,3.30
2018-12-15T06:56:12.051Z,3.30
2018-12-15T06:58:40.093Z,3.00
2018-12-15T07:01:08.183Z,3.00
2018-12-15T07:03:36.276Z,3.00
2018-12-15T07:06:04.335Z,3.10
2018-12-15T07:08:32.422Z,3.10
2018-12-15T07:11:00.544Z,3.10
2018-12-15T07:13:28.610Z,3.10
2018-12-15T07:15:56.702Z,3.10
2018-12-15T07:18:24.790Z,3.20
2018-12-15T07:20:52.874Z,3.10
2018-12-15T07:23:20.982Z,3.00
2018-12-15T07:25:49.278Z,3.10
2018-12-15T07:28:17.369Z,3.10
2018-12-15T07:30:45.475Z,3.20
2018-12-15T07:33:13.542Z,3.20
2018-12-15T07:35:41.659Z,3.40
2018-12-15T07:38:09.738Z,3.40
2018-12-15T07:40:37.894Z,3.40
2018-12-15T07:43:05.934Z,3.50
2018-12-15T07:45:34.014Z,3.50
2018-12-15T07:48:02.236Z,3.60
2018-12-15T07:50:30.269Z,3.70
2018-12-15T07:52:58.370Z,3.70
2018-12-15T07:55:26.455Z,3.60
2018-12-15T07:57:54.623Z,3.50
2018-12-15T08:00:22.740Z,3.40
2018-12-15T08:02:50.811Z,3.50
2018-12-15T08:05:18.893Z,3.50
2018-12-15T08:07:46.983Z,3.50
2018-12-15T08:10:17.150Z,3.50
2018-12-15T08:12:47.229Z,3.60
2018-12-15T08:15:15.393Z,3.60
2018-12-15T08:17:43.463Z,3.60
2018-12-15T08:20:11.627Z,3.50
2018-12-15T08:22:39.752Z,3.50
2018-12-15T08:25:07.914Z,3.50
2018-12-15T08:27:36.135Z,3.60
2018-12-15T08:30:06.692Z,3.60
2018-12-15T08:32:34.811Z,3.60
2018-12-15T08:35:03.193Z,3.50
2018-12-15T08:37:31.263Z,3.40
2018-12-15T08:39:59.371Z,3.30
2018-12-15T08:42:28.091Z,3.20
2018-12-15T08:44:56.333Z,3.10
2018-12-15T08:47:24.421Z,3.10
2018-12-15T08:49:52.567Z,3.00
2018-12-15T08:52:20.634Z,3.00
2018-12-15T08:54:48.822Z,3.00
2018-12-15T08:57:18.887Z,3.10
2018-12-15T08:59:46.987Z,3.10
2018-12-15T09:02:15.095Z,3.20
2018-12-15T09:04:43.211Z,3.20
2018-12-15T09:07:11.227Z,3.10
2018-12-15T09:09:39.354Z,3.00
2018-12-15T09:12:07.530Z,3.00
2018-12-15T09:14:35.604Z,3.10
2018-12-15T09:17:03.744Z,3.10
2018-12-15T09:19:31.810Z,3.10
2018-12-15T09:21:59.866Z,3.10
2018-12-15T09:24:27.966Z,3.10
2018-12-15T09:26:56.938Z,3.00
2018-12-15T09:29:26.112Z,3.00
2018-12-15T09:31:54.193Z,3.00
2018-12-15T09:34:22.279Z,2.90
2018-12-15T09:36:50.373Z,3.00
2018-12-15T09:39:18.511Z,3.00
2018-12-15T09:41:46.607Z,3.00
2018-12-15T09:44:14.714Z,3.00
2018-12-15T09:46:42.766Z,3.00
2018-12-15T09:49:10.889Z,3.10
2018-12-15T09:51:40.229Z,3.00
2018-12-15T09:54:08.339Z,3.10
2018-12-15T09:56:36.455Z,3.10
2018-12-15T09:59:04.664Z,3.20
2018-12-15T10:01:32.817Z,3.20
2018-12-15T10:04:00.871Z,3.10
2018-12-15T10:06:29.001Z,3.20
2018-12-15T10:08:57.069Z,3.30
2018-12-15T10:11:25.223Z,3.20
2018-12-15T10:13:53.299Z,3.20
2018-12-15T10:16:21.362Z,3.30
2018-12-15T10:18:49.475Z,3.20
2018-12-15T10:21:17.564Z,3.20
2018-12-15T10:23:45.661Z,3.30
2018-12-15T10:26:13.761Z,3.40
2018-12-15T10:28:41.854Z,3.50
2018-12-15T10:31:15.626Z,3.40
2018-12-15T10:33:43.749Z,3.40
2018-12-15T10:36:11.829Z,3.50
2018-12-15T10:38:39.924Z,3.50
2018-12-15T10:41:08.030Z,3.60
2018-12-15T10:43:36.095Z,3.60
2018-12-15T10:46:04.257Z,3.50
2018-12-15T10:48:32.343Z,3.60
2018-12-15T10:51:00.468Z,3.50
2018-12-15T10:53:28.530Z,3.50
2018-12-15T10:55:56.646Z,3.50
2018-12-15T10:58:24.741Z,3.60
2018-12-15T11:00:56.972Z,3.60
2018-12-15T11:03:25.047Z,3.60
2018-12-15T11:05:53.133Z,3.60
2018-12-15T11:08:21.258Z,3.50
2018-12-15T11:10:49.354Z,3.40
2018-12-15T11:13:17.479Z,3.40
2018-12-15T11:15:45.575Z,3.30
2018-12-15T11:18:13.674Z,3.20
2018-12-15T11:20:41.773Z,3.20
2018-12-15T11:23:09.875Z,3.20
2018-12-15T11:25:37.964Z,3.30
2018-12-15T11:28:06.078Z,3.30
2018-12-15T11:30:34.189Z,3.30
2018-12-15T11:33:02.274Z,3.20
2018-12-15T11:35:30.391Z,3.30
2018-12-15T11:37:58.458Z,3.40
2018-12-15T11:40:26.546Z,3.40
2018-12-15T11:42:54.638Z,3.30
2018-12-15T11:45:22.763Z,3.20
2018-12-15T11:47:50.826Z,3.20
2018-12-15T11:50:18.944Z,3.20
2018-12-15T11:52:47.055Z,3.10
2018-12-15T11:55:15.143Z,3.10
2018-12-15T11:57:43.238Z,3.10
2018-12-15T12:00:11.608Z,3.30
2018-12-15T12:02:39.706Z,3.20
2018-12-15T12:05:08.164Z,3.10
2018-12-15T12:07:36.254Z,3.10
2018-12-15T12:10:05.845Z,3.10
2018-12-15T12:12:33.942Z,3.20
2018-12-15T12:15:02.056Z,3.20
2018-12-15T12:17:30.209Z,3.10
2018-12-15T12:19:58.339Z,3.20
2018-12-15T12:22:26.406Z,3.30
2018-12-15T12:24:54.476Z,3.40
2018-12-15T12:27:22.564Z,3.40
2018-12-15T12:29:50.752Z,3.40
2018-12-15T12:32:18.811Z,3.40
2018-12-15T12:34:46.878Z,3.40
2018-12-15T12:37:15.144Z,3.20
2018-12-15T12:39:43.244Z,3.20
2018-12-15T12:42:11.337Z,3.30
2018-12-15T12:44:39.415Z,3.40
2018-12-15T12:47:07.574Z,3.40
2018-12-15T12:49:35.634Z,3.50
2018-12-15T12:52:03.726Z,3.50
2018-12-15T12:54:31.889Z,3.40
2018-12-15T12:56:59.981Z,3.40
2018-12-15T12:59:28.059Z,3.40
2018-12-15T13:01:56.187Z,3.50
2018-12-15T13:04:24.278Z,3.40
2018-12-15T13:06:52.390Z,3.50
2018-12-15T13:09:20.458Z,3.30
2018-12-15T13:11:48.589Z,3.30
2018-12-15T13:14:16.682Z,3.30
2018-12-15T13:16:44.786Z,3.30
2018-12-15T13:19:12.910Z,3.20
2018-12-15T13:21:40.983Z,3.30
2018-12-15T13:24:09.123Z,3.40
2018-12-15T13:26:37.203Z,3.50
2018-12-15T13:29:05.301Z,3.50
2018-12-15T13:31:33.378Z,3.40
2018-12-15T13:34:01.536Z,3.40
2018-12-15T13:36:29.730Z,3.40
2018-12-15T13:38:57.978Z,3.40
2018-12-15T13:41:26.093Z,3.40
2018-12-15T13:43:54.216Z,3.30
2018-12-15T13:46:22.341Z,3.40
2018-12-15T13:48:51.380Z,3.40
2018-12-15T13:51:19.470Z,3.20
2018-12-15T13:53:47.602Z,3.30
2018-12-15T13:56:15.691Z,3.30
2018-12-15T13:58:43.792Z,3.20
2018-12-15T14:01:11.999Z,3.10
2018-12-15T14:03:40.103Z,3.10
2018-12-15T14:06:08.223Z,3.00
2018-12-15T14:08:36.290Z,3.00
2018-12-15T14:11:04.403Z,2.90
2018-12-15T14:13:33.406Z,3.00
2018-12-15T14:16:01.484Z,3.10
2018-12-15T14:18:29.584Z,3.20
2018-12-15T14:20:57.674Z,3.30
2018-12-15T14:23:25.855Z,3.30
2018-12-15T14:25:53.965Z,3.20
2018-12-15T14:28:22.121Z,3.20
2018-12-15T14:30:50.226Z,3.10
2018-12-15T14:33:18.331Z,3.10
2018-12-15T14:35:46.401Z,3.00
2018-12-15T14:38:14.479Z,3.00
2018-12-15T14:40:42.563Z,2.90
2018-12-15T14:43:10.666Z,2.80
2018-12-15T14:45:38.797Z,2.70
2018-12-15T14:48:06.881Z,2.60
2018-12-15T14:50:34.960Z,2.60
2018-12-15T14:53:03.084Z,2.60
2018-12-15T14:55:31.148Z,2.70
2018-12-15T14:57:59.238Z,2.70
2018-12-15T15:00:27.359Z,2.80
2018-12-15T15:02:55.445Z,2.90
2018-12-15T15:05:23.562Z,2.90
2018-12-15T15:07:51.664Z,2.80
2018-12-15T15:10:19.788Z,2.90
2018-12-15T15:12:47.880Z,2.80
2018-12-15T15:15:15.972Z,2.80
2018-12-15T15:17:44.064Z,2.70
2018-12-15T15:20:12.939Z,2.80
2018-12-15T15:22:40.989Z,2.90
2018-12-15T15:25:09.082Z,3.00
2018-12-15T15:27:37.176Z,3.10
2018-12-15T15:30:06.466Z,3.20
2018-12-15T15:32:34.558Z,3.20
2018-12-15T15:35:03.275Z,3.20
2018-12-15T15:37:31.346Z,3.20
2018-12-15T15:39:59.419Z,3.10
2018-12-15T15:42:27.518Z,3.20
2018-12-15T15:44:55.635Z,3.20
2018-12-15T15:47:23.734Z,3.10
2018-12-15T15:49:51.818Z,3.00
2018-12-15T15:52:19.911Z,2.90
2018-12-15T15:54:48.031Z,2.80
2018-12-15T15:57:16.118Z,2.80
2018-12-15T15:59:44.212Z,2.80
2018-12-15T16:02:12.298Z,2.70
2018-12-15T16:04:40.397Z,2.70
2018-12-15T16:07:08.508Z,2.80
2018-12-15T16:09:36.703Z,2.70
2018-12-15T16:12:04.803Z,2.50
2018-12-15T16:14:32.879Z,2.50
2018-12-15T16:17:01.006Z,2.40
2018-12-15T16:19:29.117Z,2.40
2018-12-15T16:21:57.209Z,2.30
2018-12-15T16:24:25.311Z,2.20
2018-12-15T16:26:53.421Z,2.20
2018-12-15T16:29:21.493Z,2.40
2018-12-15T16:31:49.596Z,2.30
2018-12-15T16:34:17.687Z,2.30
2018-12-15T16:36:45.818Z,2.30
2018-12-15T16:39:13.908Z,2.30
2018-12-15T16:41:42.382Z,2.30
2018-12-15T16:44:10.666Z,2.20
2018-12-15T16:46:38.760Z,2.20
2018-12-15T16:49:06.833Z,2.20
2018-12-15T16:51:34.934Z,2.10
2018-12-15T16:54:03.038Z,2.00
2018-12-15T16:56:31.161Z,1.90
2018-12-15T16:58:59.276Z,1.90
2018-12-15T17:01:27.359Z,2.00
2018-12-15T17:03:55.471Z,2.00
2018-12-15T17:06:23.547Z,2.10
2018-12-15T17:08:51.660Z,2.10
2018-12-15T17:11:19.741Z,2.20
2018-12-15T17:13:47.825Z,2.20
2018-12-15T17:16:15.937Z,2.20
2018-12-15T17:18:43.997Z,2.30
2018-12-15T17:21:12.106Z,2.20
2018-12-15T17:23:40.181Z,2.20
2018-12-15T17:26:08.274Z,2.20
2018-12-15T17:28:36.368Z,2.20
2018-12-15T17:31:04.607Z,2.10
2018-12-15T17:33:33.189Z,1.90
2018-12-15T17:36:01.267Z,1.90
2018-12-15T17:38:29.346Z,1.90
2018-12-15T17:40:57.431Z,1.90
2018-12-15T17:43:25.557Z,1.90
2018-12-15T17:45:53.646Z,1.90
2018-12-15T17:48:21.721Z,2.00
2018-12-15T17:50:49.834Z,1.90
2018-12-15T17:53:17.922Z,1.90
2018-12-15T17:55:46.022Z,1.80
2018-12-15T17:58:14.787Z,1.90
2018-12-15T18:00:43.176Z,2.00
2018-12-15T18:03:11.266Z,2.10
2018-12-15T18:05:39.359Z,2.20
2018-12-15T18:08:07.467Z,2.20
2018-12-15T18:10:35.577Z,2.20
2018-12-15T18:13:03.643Z,2.20
2018-12-15T18:15:31.752Z,2.30
2018-12-15T18:17:59.835Z,2.30
2018-12-15T18:20:27.931Z,2.20
2018-12-15T18:22:56.011Z,2.20
2018-12-15T18:25:24.111Z,2.00
2018-12-15T18:27:52.230Z,2.00
2018-12-15T18:30:20.305Z,2.00
2018-12-15T18:32:48.422Z,2.00
2018-12-15T18:35:16.520Z,2.10
2018-12-15T18:37:44.608Z,2.10
2018-12-15T18:40:12.702Z,2.10
2018-12-15T18:42:40.851Z,2.10
2018-12-15T18:45:08.955Z,2.20
2018-12-15T18:47:37.102Z,2.20
2018-12-15T18:50:07.389Z,2.30
2018-12-15T18:52:35.447Z,2.30
2018-12-15T18:55:04.026Z,2.30
2018-12-15T18:57:32.245Z,2.30
2018-12-15T19:00:00.306Z,2.30
2018-12-15T19:02:28.393Z,2.30
2018-12-15T19:04:56.494Z,2.20
2018-12-15T19:07:24.588Z,2.10
2018-12-15T19:09:52.659Z,2.10
2018-12-15T19:12:20.764Z,2.10
2018-12-15T19:14:48.863Z,2.10
2018-12-15T19:17:16.963Z,2.10
2018-12-15T19:19:45.049Z,2.10
2018-12-15T19:22:13.134Z,2.10
2018-12-15T19:24:41.236Z,2.10
2018-12-15T19:27:09.355Z,2.00
2018-12-15T19:29:37.441Z,1.90
2018-12-15T19:32:05.556Z,1.90
2018-12-15T19:34:33.648Z,1.80
2018-12-15T19:37:01.767Z,1.90
2018-12-15T19:39:29.836Z,1.90
2018-12-15T19:41:57.935Z,1.80
2018-12-15T19:44:26.075Z,1.70
2018-12-15T19:46:54.171Z,1.70
2018-12-15T19:49:22.239Z,1.70
2018-12-15T19:51:50.321Z,1.60
2018-12-15T19:54:18.407Z,1.60
2018-12-15T19:56:46.542Z,1.60
2018-12-15T19:59:14.644Z,1.50
2018-12-15T20:01:42.732Z,1.40
2018-12-15T20:04:10.856Z,1.40
2018-12-15T20:06:39.023Z,1.30
2018-12-15T20:09:07.645Z,1.40
2018-12-15T20:11:35.779Z,1.50
2018-12-15T20:14:03.887Z,1.60
2018-12-15T20:16:31.986Z,1.60
2018-12-15T20:19:00.074Z,1.70
2018-12-15T20:21:28.155Z,1.70
2018-12-15T20:23:56.274Z,1.70
2018-12-15T20:26:24.348Z,1.80
2018-12-15T20:28:52.494Z,1.80
2018-12-15T20:31:20.566Z,1.70
2018-12-15T20:33:48.661Z,1.70
2018-12-15T20:36:16.757Z,1.70
2018-12-15T20:38:44.868Z,1.50
2018-12-15T20:41:12.985Z,1.40
2018-12-15T20:43:41.094Z,1.20
2018-12-15T20:46:09.207Z,1.20
2018-12-15T20:48:37.936Z,1.20
2018-12-15T20:51:06.027Z,1.20
2018-12-15T20:53:34.124Z,1.10
2018-12-15T20:56:02.233Z,1.10
2018-12-15T20:58:30.321Z,1.10
2018-12-15T21:00:58.452Z,1.00
2018-12-15T21:03:26.534Z,1.00
2018-12-15T21:05:54.638Z,0.90
2018-12-15T21:08:22.720Z,0.90
2018-12-15T21:10:50.816Z,0.90
2018-12-15T21:13:18.900Z,0.80
2018-12-15T21:15:48.971Z,0.80
2018-12-15T21:18:17.032Z,0.80
2018-12-15T21:20:45.123Z,0.80
2018-12-15T21:23:13.311Z,0.80
2018-12-15T21:25:41.442Z,0.80
2018-12-15T21:28:09.523Z,0.70
2018-12-15T21:30:37.647Z,0.70
2018-12-15T21:33:05.759Z,0.70
2018-12-15T21:35:35.698Z,0.70
2018-12-15T21:38:03.738Z,0.70
2018-12-15T21:40:32.025Z,0.70
2018-12-15T21:43:00.143Z,0.70
2018-12-15T21:45:28.229Z,0.60
2018-12-15T21:47:57.742Z,0.60
2018-12-15T21:50:26.194Z,0.60
2018-12-15T21:52:54.322Z,0.70
2018-12-15T21:55:22.424Z,0.70
2018-12-15T21:57:50.543Z,0.90
2018-12-15T22:00:18.639Z,0.90
2018-12-15T22:02:46.795Z,0.80
2018-12-15T22:05:14.881Z,0.90
2018-12-15T22:07:42.995Z,1.00
2018-12-15T22:10:11.192Z,1.00
2018-12-15T22:12:39.275Z,1.10
2018-12-15T22:15:07.537Z,0.80
2018-12-15T22:17:35.613Z,0.80
2018-12-15T22:20:05.569Z,0.70
2018-12-15T22:22:33.973Z,0.80
2018-12-15T22:25:02.030Z,0.80
2018-12-15T22:27:30.142Z,0.90
2018-12-15T22:29:58.232Z,0.90
2018-12-15T22:32:26.327Z,0.80
2018-12-15T22:34:54.410Z,0.90
2018-12-15T22:37:23.116Z,0.90
2018-12-15T22:39:51.217Z,0.90
2018-12-15T22:42:19.307Z,0.90
2018-12-15T22:44:47.379Z,0.80
2018-12-15T22:47:15.534Z,0.90
2018-12-15T22:49:46.228Z,1.00
2018-12-15T22:52:14.284Z,0.90
2018-12-15T22:54:43.328Z,0.80
2018-12-15T22:57:11.435Z,0.90
2018-12-15T22:59:39.519Z,1.00
2018-12-15T23:02:07.598Z,1.00
2018-12-15T23:04:35.717Z,1.10
2018-12-15T23:07:03.987Z,1.10
2018-12-15T23:09:32.174Z,1.10
2018-12-15T23:12:00.349Z,1.00
2018-12-15T23:14:28.417Z,0.70
2018-12-15T23:16:56.518Z,0.80
2018-12-15T23:19:24.603Z,0.80
2018-12-15T23:21:52.665Z,0.80
2018-12-15T23:24:23.170Z,0.80
2018-12-15T23:26:51.331Z,0.90
2018-12-15T23:29:19.412Z,0.80
2018-12-15T23:31:47.528Z,0.90
2018-12-15T23:34:15.625Z,0.90
2018-12-15T23:36:43.694Z,1.00
2018-12-15T23:39:11.781Z,0.90
2018-12-15T23:41:39.886Z,0.90
2018-12-15T23:44:07.975Z,0.90
2018-12-15T23:46:36.047Z,0.90
2018-12-15T23:49:04.145Z,1.00
2018-12-15T23:51:32.252Z,1.00
2018-12-15T23:54:01.339Z,1.00
2018-12-15T23:56:29.444Z,1.10
2018-12-15T23:58:57.497Z,1.30
